sensor_id;sensor_type;location;lat;lon;timestamp;temperature;humidity
20827;DHT22;10574;52.508;13.236;2022-09-01T00:01:52;15.30;99.90
20827;DHT22;10574;52.508;13.236;2022-09-01T00:04:22;15.30;99.90
20827;DHT22;10574;52.508;13.236;2022-09-01T00:06:51;15.10;99.90
20827;DHT22;10574;52.508;13.236;2022-09-01T00:09:21;15.10;99.90
20827;DHT22;10574;52.508;13.236;2022-09-01T00:11:51;15.10;99.90
20827;DHT22;10574;52.508;13.236;2022-09-01T00:14:23;15.10;99.90
20827;DHT22;10574;52.508;13.236;2022-09-01T00:16:50;15.10;99.90
20827;DHT22;10574;52.508;13.236;2022-09-01T00:19:17;15.10;99.90
20827;DHT22;10574;52.508;13.236;2022-09-01T00:21:46;15.10;99.90
20827;DHT22;10574;52.508;13.236;2022-09-01T00:24:16;15.00;99.90
20827;DHT22;10574;52.508;13.236;2022-09-01T00:26:44;15.10;99.90
20827;DHT22;10574;52.508;13.236;2022-09-01T00:29:13;15.10;99.90
20827;DHT22;10574;52.508;13.236;2022-09-01T00:31:41;15.10;99.90
20827;DHT22;10574;52.508;13.236;2022-09-01T00:34:09;15.10;99.90
20827;DHT22;10574;52.508;13.236;2022-09-01T00:36:36;15.10;99.90
20827;DHT22;10574;52.508;13.236;2022-09-01T00:39:05;15.00;99.90
20827;DHT22;10574;52.508;13.236;2022-09-01T00:41:35;15.00;99.90
20827;DHT22;10574;52.508;13.236;2022-09-01T00:44:12;15.00;99.90
20827;DHT22;10574;52.508;13.236;2022-09-01T00:46:46;15.00;99.90
20827;DHT22;10574;52.508;13.236;2022-09-01T00:49:36;15.00;99.90
20827;DHT22;10574;52.508;13.236;2022-09-01T00:52:13;15.10;99.90
20827;DHT22;10574;52.508;13.236;2022-09-01T00:54:41;15.10;99.90
20827;DHT22;10574;52.508;13.236;2022-09-01T00:57:09;15.00;99.90
20827;DHT22;10574;52.508;13.236;2022-09-01T00:59:42;15.10;99.90
20827;DHT22;10574;52.508;13.236;2022-09-01T01:02:08;15.00;99.90
20827;DHT22;10574;52.508;13.236;2022-09-01T01:04:36;15.00;99.90
20827;DHT22;10574;52.508;13.236;2022-09-01T01:07:04;15.00;99.90
20827;DHT22;10574;52.508;13.236;2022-09-01T01:09:37;14.90;99.90
20827;DHT22;10574;52.508;13.236;2022-09-01T01:12:06;14.90;99.90
20827;DHT22;10574;52.508;13.236;2022-09-01T01:14:36;14.90;99.90
20827;DHT22;10574;52.508;13.236;2022-09-01T01:17:05;14.90;99.90
20827;DHT22;10574;52.508;13.236;2022-09-01T01:19:42;14.90;99.90
20827;DHT22;10574;52.508;13.236;2022-09-01T01:22:50;14.90;99.90
20827;DHT22;10574;52.508;13.236;2022-09-01T01:25:55;14.90;99.90
20827;DHT22;10574;52.508;13.236;2022-09-01T01:28:31;14.90;99.90
20827;DHT22;10574;52.508;13.236;2022-09-01T01:33:34;14.90;99.90
20827;DHT22;10574;52.508;13.236;2022-09-01T01:36:03;14.80;99.90
20827;DHT22;10574;52.508;13.236;2022-09-01T01:38:33;14.80;99.90
20827;DHT22;10574;52.508;13.236;2022-09-01T01:41:01;14.80;99.90
20827;DHT22;10574;52.508;13.236;2022-09-01T01:43:30;14.80;99.90
20827;DHT22;10574;52.508;13.236;2022-09-01T01:45:57;14.80;99.90
20827;DHT22;10574;52.508;13.236;2022-09-01T01:48:28;14.70;99.90
20827;DHT22;10574;52.508;13.236;2022-09-01T01:50:57;14.60;99.90
20827;DHT22;10574;52.508;13.236;2022-09-01T01:53:26;14.60;99.90
20827;DHT22;10574;52.508;13.236;2022-09-01T01:55:54;14.50;99.90
20827;DHT22;10574;52.508;13.236;2022-09-01T01:58:24;14.50;99.90
20827;DHT22;10574;52.508;13.236;2022-09-01T02:00:54;14.50;99.90
20827;DHT22;10574;52.508;13.236;2022-09-01T02:03:25;14.50;99.90
20827;DHT22;10574;52.508;13.236;2022-09-01T02:05:55;14.40;99.90
20827;DHT22;10574;52.508;13.236;2022-09-01T02:08:23;14.40;99.90
20827;DHT22;10574;52.508;13.236;2022-09-01T02:10:53;14.30;99.90
20827;DHT22;10574;52.508;13.236;2022-09-01T02:13:22;14.30;99.90
20827;DHT22;10574;52.508;13.236;2022-09-01T02:16:02;14.40;99.90
20827;DHT22;10574;52.508;13.236;2022-09-01T02:18:31;14.30;99.90
20827;DHT22;10574;52.508;13.236;2022-09-01T02:21:03;14.30;99.90
20827;DHT22;10574;52.508;13.236;2022-09-01T02:23:32;14.30;99.90
20827;DHT22;10574;52.508;13.236;2022-09-01T02:26:01;14.30;99.90
20827;DHT22;10574;52.508;13.236;2022-09-01T02:28:31;14.30;99.90
20827;DHT22;10574;52.508;13.236;2022-09-01T02:31:00;14.40;99.90
20827;DHT22;10574;52.508;13.236;2022-09-01T02:33:30;14.40;99.90
20827;DHT22;10574;52.508;13.236;2022-09-01T02:36:00;14.40;99.90
20827;DHT22;10574;52.508;13.236;2022-09-01T02:38:29;14.20;99.90
20827;DHT22;10574;52.508;13.236;2022-09-01T02:40:58;14.10;99.90
20827;DHT22;10574;52.508;13.236;2022-09-01T02:43:28;14.10;99.90
20827;DHT22;10574;52.508;13.236;2022-09-01T02:46:01;14.00;99.90
20827;DHT22;10574;52.508;13.236;2022-09-01T02:48:31;14.00;99.90
20827;DHT22;10574;52.508;13.236;2022-09-01T02:51:05;14.00;99.90
20827;DHT22;10574;52.508;13.236;2022-09-01T02:53:34;14.10;99.90
20827;DHT22;10574;52.508;13.236;2022-09-01T02:56:03;14.10;99.90
20827;DHT22;10574;52.508;13.236;2022-09-01T02:58:33;14.10;99.90
20827;DHT22;10574;52.508;13.236;2022-09-01T03:01:02;14.10;99.90
20827;DHT22;10574;52.508;13.236;2022-09-01T03:03:29;14.00;99.90
20827;DHT22;10574;52.508;13.236;2022-09-01T03:05:58;13.90;99.90
20827;DHT22;10574;52.508;13.236;2022-09-01T03:08:26;13.80;99.90
20827;DHT22;10574;52.508;13.236;2022-09-01T03:10:54;13.70;99.90
20827;DHT22;10574;52.508;13.236;2022-09-01T03:13:24;13.70;99.90
20827;DHT22;10574;52.508;13.236;2022-09-01T03:15:51;13.70;99.90
20827;DHT22;10574;52.508;13.236;2022-09-01T03:18:20;13.60;99.90
20827;DHT22;10574;52.508;13.236;2022-09-01T03:20:48;13.60;99.90
20827;DHT22;10574;52.508;13.236;2022-09-01T03:23:17;13.60;99.90
20827;DHT22;10574;52.508;13.236;2022-09-01T03:25:45;13.60;99.90
20827;DHT22;10574;52.508;13.236;2022-09-01T03:28:14;13.60;99.90
20827;DHT22;10574;52.508;13.236;2022-09-01T03:30:47;13.50;99.90
20827;DHT22;10574;52.508;13.236;2022-09-01T03:33:17;13.50;99.90
20827;DHT22;10574;52.508;13.236;2022-09-01T03:35:46;13.50;99.90
20827;DHT22;10574;52.508;13.236;2022-09-01T03:38:15;13.50;99.90
20827;DHT22;10574;52.508;13.236;2022-09-01T03:40:44;13.40;99.90
20827;DHT22;10574;52.508;13.236;2022-09-01T03:43:14;13.30;99.90
20827;DHT22;10574;52.508;13.236;2022-09-01T03:45:44;13.30;99.90
20827;DHT22;10574;52.508;13.236;2022-09-01T03:48:12;13.30;99.90
20827;DHT22;10574;52.508;13.236;2022-09-01T03:50:43;13.20;99.90
20827;DHT22;10574;52.508;13.236;2022-09-01T03:53:14;13.20;99.90
20827;DHT22;10574;52.508;13.236;2022-09-01T03:55:44;13.20;99.90
20827;DHT22;10574;52.508;13.236;2022-09-01T03:58:15;13.30;99.90
20827;DHT22;10574;52.508;13.236;2022-09-01T04:00:51;13.20;99.90
20827;DHT22;10574;52.508;13.236;2022-09-01T04:03:16;13.20;99.90
20827;DHT22;10574;52.508;13.236;2022-09-01T04:05:46;13.20;99.90
20827;DHT22;10574;52.508;13.236;2022-09-01T04:08:14;13.10;99.90
20827;DHT22;10574;52.508;13.236;2022-09-01T04:13:29;13.00;99.90
20827;DHT22;10574;52.508;13.236;2022-09-01T04:15:58;13.00;99.90
20827;DHT22;10574;52.508;13.236;2022-09-01T04:18:26;13.10;99.90
20827;DHT22;10574;52.508;13.236;2022-09-01T04:20:57;12.90;99.90
20827;DHT22;10574;52.508;13.236;2022-09-01T04:23:30;12.90;99.90
20827;DHT22;10574;52.508;13.236;2022-09-01T04:26:06;12.90;99.90
20827;DHT22;10574;52.508;13.236;2022-09-01T04:28:44;12.90;99.90
20827;DHT22;10574;52.508;13.236;2022-09-01T04:31:17;12.90;99.90
20827;DHT22;10574;52.508;13.236;2022-09-01T04:33:48;12.80;99.90
20827;DHT22;10574;52.508;13.236;2022-09-01T04:36:27;12.80;99.90
20827;DHT22;10574;52.508;13.236;2022-09-01T04:38:58;12.80;99.90
20827;DHT22;10574;52.508;13.236;2022-09-01T04:41:28;12.80;99.90
20827;DHT22;10574;52.508;13.236;2022-09-01T04:44:00;12.70;99.90
20827;DHT22;10574;52.508;13.236;2022-09-01T04:46:35;12.70;99.90
20827;DHT22;10574;52.508;13.236;2022-09-01T04:49:04;12.70;99.90
20827;DHT22;10574;52.508;13.236;2022-09-01T04:51:33;12.80;99.90
20827;DHT22;10574;52.508;13.236;2022-09-01T04:54:02;12.80;99.90
20827;DHT22;10574;52.508;13.236;2022-09-01T04:56:29;12.80;99.90
20827;DHT22;10574;52.508;13.236;2022-09-01T04:58:59;12.80;99.90
20827;DHT22;10574;52.508;13.236;2022-09-01T05:01:27;12.80;99.90
20827;DHT22;10574;52.508;13.236;2022-09-01T05:03:55;12.80;99.90
20827;DHT22;10574;52.508;13.236;2022-09-01T05:06:24;12.90;99.90
20827;DHT22;10574;52.508;13.236;2022-09-01T05:08:52;13.30;99.90
20827;DHT22;10574;52.508;13.236;2022-09-01T05:11:21;14.10;99.90
20827;DHT22;10574;52.508;13.236;2022-09-01T05:13:50;14.80;99.90
20827;DHT22;10574;52.508;13.236;2022-09-01T05:16:19;15.50;99.90
20827;DHT22;10574;52.508;13.236;2022-09-01T05:18:49;16.10;99.90
20827;DHT22;10574;52.508;13.236;2022-09-01T05:21:21;16.80;99.90
20827;DHT22;10574;52.508;13.236;2022-09-01T05:23:51;16.80;99.90
20827;DHT22;10574;52.508;13.236;2022-09-01T05:26:24;17.20;99.90
20827;DHT22;10574;52.508;13.236;2022-09-01T05:28:54;17.30;99.90
20827;DHT22;10574;52.508;13.236;2022-09-01T05:31:24;17.30;99.90
20827;DHT22;10574;52.508;13.236;2022-09-01T05:33:54;17.60;99.90
20827;DHT22;10574;52.508;13.236;2022-09-01T05:36:24;17.60;99.90
20827;DHT22;10574;52.508;13.236;2022-09-01T05:38:52;17.30;99.90
20827;DHT22;10574;52.508;13.236;2022-09-01T05:41:20;17.50;99.90
20827;DHT22;10574;52.508;13.236;2022-09-01T05:43:50;17.50;99.90
20827;DHT22;10574;52.508;13.236;2022-09-01T05:46:23;17.50;99.90
20827;DHT22;10574;52.508;13.236;2022-09-01T05:48:51;18.00;99.90
20827;DHT22;10574;52.508;13.236;2022-09-01T05:51:21;18.60;99.90
20827;DHT22;10574;52.508;13.236;2022-09-01T05:53:52;18.20;99.90
20827;DHT22;10574;52.508;13.236;2022-09-01T05:56:22;17.60;99.90
20827;DHT22;10574;52.508;13.236;2022-09-01T05:58:50;17.50;99.90
20827;DHT22;10574;52.508;13.236;2022-09-01T06:01:24;18.30;99.90
20827;DHT22;10574;52.508;13.236;2022-09-01T06:03:53;18.60;99.90
20827;DHT22;10574;52.508;13.236;2022-09-01T06:06:23;19.20;99.90
20827;DHT22;10574;52.508;13.236;2022-09-01T06:08:52;18.60;99.90
20827;DHT22;10574;52.508;13.236;2022-09-01T06:11:21;18.70;99.90
20827;DHT22;10574;52.508;13.236;2022-09-01T06:13:51;18.40;99.90
20827;DHT22;10574;52.508;13.236;2022-09-01T06:16:20;18.30;99.90
20827;DHT22;10574;52.508;13.236;2022-09-01T06:18:50;18.20;99.90
20827;DHT22;10574;52.508;13.236;2022-09-01T06:21:20;17.90;99.90
20827;DHT22;10574;52.508;13.236;2022-09-01T06:23:50;17.90;99.90
20827;DHT22;10574;52.508;13.236;2022-09-01T06:26:27;18.20;99.90
20827;DHT22;10574;52.508;13.236;2022-09-01T06:28:59;18.30;99.90
20827;DHT22;10574;52.508;13.236;2022-09-01T06:31:31;18.10;99.90
20827;DHT22;10574;52.508;13.236;2022-09-01T06:34:01;17.90;99.90
20827;DHT22;10574;52.508;13.236;2022-09-01T06:36:31;18.00;99.90
20827;DHT22;10574;52.508;13.236;2022-09-01T06:38:59;17.60;99.90
20827;DHT22;10574;52.508;13.236;2022-09-01T06:41:27;18.00;99.90
20827;DHT22;10574;52.508;13.236;2022-09-01T06:43:57;18.20;99.90
20827;DHT22;10574;52.508;13.236;2022-09-01T06:46:27;18.30;99.90
20827;DHT22;10574;52.508;13.236;2022-09-01T06:48:55;18.10;99.90
20827;DHT22;10574;52.508;13.236;2022-09-01T06:51:25;18.20;99.90
20827;DHT22;10574;52.508;13.236;2022-09-01T06:53:57;18.40;99.90
20827;DHT22;10574;52.508;13.236;2022-09-01T06:56:26;18.30;99.90
20827;DHT22;10574;52.508;13.236;2022-09-01T06:58:56;18.30;99.90
20827;DHT22;10574;52.508;13.236;2022-09-01T07:01:24;18.60;99.90
20827;DHT22;10574;52.508;13.236;2022-09-01T07:03:54;18.60;99.90
20827;DHT22;10574;52.508;13.236;2022-09-01T07:06:24;18.10;99.90
20827;DHT22;10574;52.508;13.236;2022-09-01T07:08:57;18.10;99.90
20827;DHT22;10574;52.508;13.236;2022-09-01T07:11:29;17.90;99.90
20827;DHT22;10574;52.508;13.236;2022-09-01T07:14:00;18.10;99.90
20827;DHT22;10574;52.508;13.236;2022-09-01T07:16:31;18.10;99.90
20827;DHT22;10574;52.508;13.236;2022-09-01T07:19:01;18.20;99.90
20827;DHT22;10574;52.508;13.236;2022-09-01T07:21:30;18.10;99.90
20827;DHT22;10574;52.508;13.236;2022-09-01T07:23:59;18.40;99.90
20827;DHT22;10574;52.508;13.236;2022-09-01T07:26:28;18.10;99.90
20827;DHT22;10574;52.508;13.236;2022-09-01T07:28:56;17.90;99.90
20827;DHT22;10574;52.508;13.236;2022-09-01T07:31:27;18.30;99.90
20827;DHT22;10574;52.508;13.236;2022-09-01T07:33:59;18.10;99.90
20827;DHT22;10574;52.508;13.236;2022-09-01T07:36:27;17.70;99.90
20827;DHT22;10574;52.508;13.236;2022-09-01T07:38:56;18.00;99.90
20827;DHT22;10574;52.508;13.236;2022-09-01T07:41:25;18.20;99.90
20827;DHT22;10574;52.508;13.236;2022-09-01T07:43:55;18.50;99.90
20827;DHT22;10574;52.508;13.236;2022-09-01T07:46:24;18.90;99.90
20827;DHT22;10574;52.508;13.236;2022-09-01T07:48:55;18.60;99.90
20827;DHT22;10574;52.508;13.236;2022-09-01T07:51:24;18.80;99.90
20827;DHT22;10574;52.508;13.236;2022-09-01T07:53:53;19.00;99.90
20827;DHT22;10574;52.508;13.236;2022-09-01T07:56:22;18.70;99.90
20827;DHT22;10574;52.508;13.236;2022-09-01T07:58:51;18.30;99.90
20827;DHT22;10574;52.508;13.236;2022-09-01T08:01:22;18.30;99.90
20827;DHT22;10574;52.508;13.236;2022-09-01T08:03:53;18.50;99.90
20827;DHT22;10574;52.508;13.236;2022-09-01T08:06:22;18.40;99.90
20827;DHT22;10574;52.508;13.236;2022-09-01T08:08:54;18.70;99.90
20827;DHT22;10574;52.508;13.236;2022-09-01T08:11:25;19.20;99.90
20827;DHT22;10574;52.508;13.236;2022-09-01T08:13:54;19.70;99.90
20827;DHT22;10574;52.508;13.236;2022-09-01T08:16:26;19.30;99.90
20827;DHT22;10574;52.508;13.236;2022-09-01T08:18:56;19.60;99.90
20827;DHT22;10574;52.508;13.236;2022-09-01T08:21:25;19.70;99.90
20827;DHT22;10574;52.508;13.236;2022-09-01T08:23:54;19.80;99.90
20827;DHT22;10574;52.508;13.236;2022-09-01T08:26:24;19.60;99.90
20827;DHT22;10574;52.508;13.236;2022-09-01T08:28:53;19.20;99.90
20827;DHT22;10574;52.508;13.236;2022-09-01T08:31:23;19.30;99.90
20827;DHT22;10574;52.508;13.236;2022-09-01T08:33:52;19.30;99.90
20827;DHT22;10574;52.508;13.236;2022-09-01T08:36:22;19.60;99.90
20827;DHT22;10574;52.508;13.236;2022-09-01T08:38:50;19.60;99.90
20827;DHT22;10574;52.508;13.236;2022-09-01T08:41:24;19.80;99.90
20827;DHT22;10574;52.508;13.236;2022-09-01T08:44:03;20.30;99.90
20827;DHT22;10574;52.508;13.236;2022-09-01T08:46:31;19.90;99.90
20827;DHT22;10574;52.508;13.236;2022-09-01T08:49:06;19.50;99.90
20827;DHT22;10574;52.508;13.236;2022-09-01T08:51:37;19.40;99.90
20827;DHT22;10574;52.508;13.236;2022-09-01T08:57:10;19.70;99.90
20827;DHT22;10574;52.508;13.236;2022-09-01T08:59:34;19.70;99.90
20827;DHT22;10574;52.508;13.236;2022-09-01T09:08:03;19.60;99.90
20827;DHT22;10574;52.508;13.236;2022-09-01T09:10:45;20.00;99.90
20827;DHT22;10574;52.508;13.236;2022-09-01T09:21:14;20.40;99.90
20827;DHT22;10574;52.508;13.236;2022-09-01T09:23:44;20.10;99.90
20827;DHT22;10574;52.508;13.236;2022-09-01T09:26:12;20.00;99.90
20827;DHT22;10574;52.508;13.236;2022-09-01T09:28:40;20.00;99.90
20827;DHT22;10574;52.508;13.236;2022-09-01T09:33:58;20.40;99.90
20827;DHT22;10574;52.508;13.236;2022-09-01T09:36:33;20.50;99.90
20827;DHT22;10574;52.508;13.236;2022-09-01T09:39:10;19.70;99.90
20827;DHT22;10574;52.508;13.236;2022-09-01T09:41:39;20.00;99.90
20827;DHT22;10574;52.508;13.236;2022-09-01T09:46:49;20.10;99.90
20827;DHT22;10574;52.508;13.236;2022-09-01T09:52:17;19.60;99.90
20827;DHT22;10574;52.508;13.236;2022-09-01T09:54:27;19.30;99.90
20827;DHT22;10574;52.508;13.236;2022-09-01T10:02:27;19.20;99.90
20827;DHT22;10574;52.508;13.236;2022-09-01T10:04:58;19.20;99.90
20827;DHT22;10574;52.508;13.236;2022-09-01T10:07:32;19.10;99.90
20827;DHT22;10574;52.508;13.236;2022-09-01T10:10:38;19.00;99.90
20827;DHT22;10574;52.508;13.236;2022-09-01T10:12:37;19.30;99.90
20827;DHT22;10574;52.508;13.236;2022-09-01T10:15:08;19.10;99.90
20827;DHT22;10574;52.508;13.236;2022-09-01T10:17:38;19.00;99.90
20827;DHT22;10574;52.508;13.236;2022-09-01T10:20:13;19.10;99.90
20827;DHT22;10574;52.508;13.236;2022-09-01T10:22:42;19.30;99.90
20827;DHT22;10574;52.508;13.236;2022-09-01T10:25:13;19.80;99.90
20827;DHT22;10574;52.508;13.236;2022-09-01T10:27:42;19.70;99.90
20827;DHT22;10574;52.508;13.236;2022-09-01T10:30:14;19.60;99.90
20827;DHT22;10574;52.508;13.236;2022-09-01T10:32:54;19.70;99.90
20827;DHT22;10574;52.508;13.236;2022-09-01T10:35:31;19.90;99.90
20827;DHT22;10574;52.508;13.236;2022-09-01T10:38:04;20.50;99.90
20827;DHT22;10574;52.508;13.236;2022-09-01T10:40:45;20.30;99.90
20827;DHT22;10574;52.508;13.236;2022-09-01T10:45:54;20.70;99.90
20827;DHT22;10574;52.508;13.236;2022-09-01T10:48:30;20.70;99.90
20827;DHT22;10574;52.508;13.236;2022-09-01T10:53:49;20.60;99.90
20827;DHT22;10574;52.508;13.236;2022-09-01T11:04:20;20.60;99.90
20827;DHT22;10574;52.508;13.236;2022-09-01T11:06:57;20.20;99.90
20827;DHT22;10574;52.508;13.236;2022-09-01T11:09:35;19.90;99.90
20827;DHT22;10574;52.508;13.236;2022-09-01T11:17:54;20.40;99.90
20827;DHT22;10574;52.508;13.236;2022-09-01T11:20:31;20.60;99.90
20827;DHT22;10574;52.508;13.236;2022-09-01T11:23:02;20.60;99.90
20827;DHT22;10574;52.508;13.236;2022-09-01T11:25:39;20.50;99.90
20827;DHT22;10574;52.508;13.236;2022-09-01T11:36:23;20.30;99.90
20827;DHT22;10574;52.508;13.236;2022-09-01T11:41:34;20.10;99.90
20827;DHT22;10574;52.508;13.236;2022-09-01T11:44:08;20.30;99.90
20827;DHT22;10574;52.508;13.236;2022-09-01T11:46:35;20.10;99.90
20827;DHT22;10574;52.508;13.236;2022-09-01T11:49:07;20.00;99.90
20827;DHT22;10574;52.508;13.236;2022-09-01T11:51:44;20.20;99.90
20827;DHT22;10574;52.508;13.236;2022-09-01T11:54:13;20.10;99.90
20827;DHT22;10574;52.508;13.236;2022-09-01T11:56:41;20.00;99.90
20827;DHT22;10574;52.508;13.236;2022-09-01T11:59:09;20.00;99.60
20827;DHT22;10574;52.508;13.236;2022-09-01T12:01:38;20.10;98.70
20827;DHT22;10574;52.508;13.236;2022-09-01T12:04:24;20.30;99.40
20827;DHT22;10574;52.508;13.236;2022-09-01T12:07:03;20.30;99.90
20827;DHT22;10574;52.508;13.236;2022-09-01T12:09:41;20.50;98.70
20827;DHT22;10574;52.508;13.236;2022-09-01T12:14:58;21.30;97.70
20827;DHT22;10574;52.508;13.236;2022-09-01T12:17:26;21.10;99.90
20827;DHT22;10574;52.508;13.236;2022-09-01T12:19:54;20.60;99.90
20827;DHT22;10574;52.508;13.236;2022-09-01T12:22:22;20.10;99.90
20827;DHT22;10574;52.508;13.236;2022-09-01T12:24:52;20.10;99.90
20827;DHT22;10574;52.508;13.236;2022-09-01T12:27:21;19.80;99.90
20827;DHT22;10574;52.508;13.236;2022-09-01T12:29:49;19.80;99.90
20827;DHT22;10574;52.508;13.236;2022-09-01T12:32:17;19.90;99.90
20827;DHT22;10574;52.508;13.236;2022-09-01T12:34:58;20.00;99.90
20827;DHT22;10574;52.508;13.236;2022-09-01T12:37:24;19.90;99.90
20827;DHT22;10574;52.508;13.236;2022-09-01T12:39:54;20.00;99.90
20827;DHT22;10574;52.508;13.236;2022-09-01T12:42:30;20.00;99.90
20827;DHT22;10574;52.508;13.236;2022-09-01T12:45:03;20.10;99.90
20827;DHT22;10574;52.508;13.236;2022-09-01T12:50:31;19.90;99.90
20827;DHT22;10574;52.508;13.236;2022-09-01T12:52:48;20.00;99.90
20827;DHT22;10574;52.508;13.236;2022-09-01T12:55:25;20.20;99.90
20827;DHT22;10574;52.508;13.236;2022-09-01T12:57:55;20.30;99.90
20827;DHT22;10574;52.508;13.236;2022-09-01T13:00:26;20.40;99.90
20827;DHT22;10574;52.508;13.236;2022-09-01T13:03:04;20.40;99.90
20827;DHT22;10574;52.508;13.236;2022-09-01T13:05:36;20.60;99.90
20827;DHT22;10574;52.508;13.236;2022-09-01T13:08:08;20.60;99.90
20827;DHT22;10574;52.508;13.236;2022-09-01T13:10:39;20.60;99.90
20827;DHT22;10574;52.508;13.236;2022-09-01T13:13:10;21.00;99.90
20827;DHT22;10574;52.508;13.236;2022-09-01T13:15:40;21.10;99.90
20827;DHT22;10574;52.508;13.236;2022-09-01T13:18:09;21.00;99.90
20827;DHT22;10574;52.508;13.236;2022-09-01T13:20:36;21.10;99.90
20827;DHT22;10574;52.508;13.236;2022-09-01T13:23:05;21.20;99.90
20827;DHT22;10574;52.508;13.236;2022-09-01T13:25:33;21.30;99.90
20827;DHT22;10574;52.508;13.236;2022-09-01T13:28:01;21.50;98.10
20827;DHT22;10574;52.508;13.236;2022-09-01T13:30:29;21.60;98.20
20827;DHT22;10574;52.508;13.236;2022-09-01T13:32:57;21.80;98.60
20827;DHT22;10574;52.508;13.236;2022-09-01T13:35:25;21.90;98.40
20827;DHT22;10574;52.508;13.236;2022-09-01T13:37:52;21.80;99.30
20827;DHT22;10574;52.508;13.236;2022-09-01T13:40:21;21.80;98.80
20827;DHT22;10574;52.508;13.236;2022-09-01T13:42:51;21.60;99.50
20827;DHT22;10574;52.508;13.236;2022-09-01T13:45:21;21.70;99.30
20827;DHT22;10574;52.508;13.236;2022-09-01T13:47:51;21.50;98.80
20827;DHT22;10574;52.508;13.236;2022-09-01T13:50:21;21.50;98.30
20827;DHT22;10574;52.508;13.236;2022-09-01T13:52:54;21.30;98.30
20827;DHT22;10574;52.508;13.236;2022-09-01T13:55:27;21.20;98.20
20827;DHT22;10574;52.508;13.236;2022-09-01T13:57:50;21.10;98.40
20827;DHT22;10574;52.508;13.236;2022-09-01T14:00:21;20.80;98.50
20827;DHT22;10574;52.508;13.236;2022-09-01T14:02:52;20.90;99.00
20827;DHT22;10574;52.508;13.236;2022-09-01T14:05:25;20.70;99.60
20827;DHT22;10574;52.508;13.236;2022-09-01T14:07:53;20.70;99.90
20827;DHT22;10574;52.508;13.236;2022-09-01T14:10:22;20.90;99.90
20827;DHT22;10574;52.508;13.236;2022-09-01T14:12:50;21.00;99.90
20827;DHT22;10574;52.508;13.236;2022-09-01T14:15:19;21.00;99.80
20827;DHT22;10574;52.508;13.236;2022-09-01T14:17:50;20.90;99.90
20827;DHT22;10574;52.508;13.236;2022-09-01T14:20:20;21.20;99.30
20827;DHT22;10574;52.508;13.236;2022-09-01T14:22:49;21.20;99.10
20827;DHT22;10574;52.508;13.236;2022-09-01T14:25:18;21.10;99.90
20827;DHT22;10574;52.508;13.236;2022-09-01T14:27:47;20.90;99.90
20827;DHT22;10574;52.508;13.236;2022-09-01T14:30:21;20.90;99.70
20827;DHT22;10574;52.508;13.236;2022-09-01T14:32:50;20.70;99.90
20827;DHT22;10574;52.508;13.236;2022-09-01T14:35:21;20.50;99.90
20827;DHT22;10574;52.508;13.236;2022-09-01T14:37:51;20.50;99.90
20827;DHT22;10574;52.508;13.236;2022-09-01T14:40:21;20.40;99.90
20827;DHT22;10574;52.508;13.236;2022-09-01T14:42:51;20.70;99.90
20827;DHT22;10574;52.508;13.236;2022-09-01T14:45:21;20.70;99.90
20827;DHT22;10574;52.508;13.236;2022-09-01T14:47:51;21.00;99.90
20827;DHT22;10574;52.508;13.236;2022-09-01T14:50:20;21.40;99.90
20827;DHT22;10574;52.508;13.236;2022-09-01T14:52:50;21.90;99.30
20827;DHT22;10574;52.508;13.236;2022-09-01T14:55:18;22.00;98.10
20827;DHT22;10574;52.508;13.236;2022-09-01T14:57:46;22.00;97.40
20827;DHT22;10574;52.508;13.236;2022-09-01T15:00:14;22.00;96.50
20827;DHT22;10574;52.508;13.236;2022-09-01T15:02:43;22.10;97.40
20827;DHT22;10574;52.508;13.236;2022-09-01T15:05:12;22.00;96.50
20827;DHT22;10574;52.508;13.236;2022-09-01T15:07:41;22.00;97.10
20827;DHT22;10574;52.508;13.236;2022-09-01T15:10:10;21.90;96.10
20827;DHT22;10574;52.508;13.236;2022-09-01T15:12:38;21.50;96.10
20827;DHT22;10574;52.508;13.236;2022-09-01T15:15:07;21.40;96.90
20827;DHT22;10574;52.508;13.236;2022-09-01T15:17:35;21.40;97.10
20827;DHT22;10574;52.508;13.236;2022-09-01T15:20:04;21.40;98.10
20827;DHT22;10574;52.508;13.236;2022-09-01T15:22:50;21.20;98.20
20827;DHT22;10574;52.508;13.236;2022-09-01T15:25:18;21.00;99.20
20827;DHT22;10574;52.508;13.236;2022-09-01T15:27:46;20.70;99.70
20827;DHT22;10574;52.508;13.236;2022-09-01T15:30:14;20.50;99.90
20827;DHT22;10574;52.508;13.236;2022-09-01T15:32:43;20.40;99.90
20827;DHT22;10574;52.508;13.236;2022-09-01T15:35:13;20.40;99.90
20827;DHT22;10574;52.508;13.236;2022-09-01T15:37:41;20.30;99.90
20827;DHT22;10574;52.508;13.236;2022-09-01T15:40:09;20.20;99.90
20827;DHT22;10574;52.508;13.236;2022-09-01T15:42:40;20.20;99.90
20827;DHT22;10574;52.508;13.236;2022-09-01T15:45:14;20.20;99.90
20827;DHT22;10574;52.508;13.236;2022-09-01T15:47:42;20.30;99.90
20827;DHT22;10574;52.508;13.236;2022-09-01T15:50:12;20.40;99.90
20827;DHT22;10574;52.508;13.236;2022-09-01T15:52:49;20.50;99.90
20827;DHT22;10574;52.508;13.236;2022-09-01T15:55:24;20.30;99.90
20827;DHT22;10574;52.508;13.236;2022-09-01T15:57:46;20.20;99.90
20827;DHT22;10574;52.508;13.236;2022-09-01T16:00:16;20.20;99.90
20827;DHT22;10574;52.508;13.236;2022-09-01T16:02:44;20.10;99.90
20827;DHT22;10574;52.508;13.236;2022-09-01T16:05:12;20.10;99.90
20827;DHT22;10574;52.508;13.236;2022-09-01T16:07:41;20.10;99.90
20827;DHT22;10574;52.508;13.236;2022-09-01T16:10:09;20.10;99.90
20827;DHT22;10574;52.508;13.236;2022-09-01T16:12:39;20.30;99.90
20827;DHT22;10574;52.508;13.236;2022-09-01T16:15:14;20.40;99.90
20827;DHT22;10574;52.508;13.236;2022-09-01T16:18:08;20.40;99.90
20827;DHT22;10574;52.508;13.236;2022-09-01T16:20:38;20.40;99.90
20827;DHT22;10574;52.508;13.236;2022-09-01T16:23:17;20.50;99.90
20827;DHT22;10574;52.508;13.236;2022-09-01T16:25:46;20.60;99.90
20827;DHT22;10574;52.508;13.236;2022-09-01T16:28:26;20.60;99.90
20827;DHT22;10574;52.508;13.236;2022-09-01T16:31:04;20.70;99.90
20827;DHT22;10574;52.508;13.236;2022-09-01T16:33:33;20.60;99.90
20827;DHT22;10574;52.508;13.236;2022-09-01T16:36:12;20.60;99.90
20827;DHT22;10574;52.508;13.236;2022-09-01T16:39:39;20.50;99.90
20827;DHT22;10574;52.508;13.236;2022-09-01T16:56:09;20.20;99.90
20827;DHT22;10574;52.508;13.236;2022-09-01T16:58:41;20.10;99.90
20827;DHT22;10574;52.508;13.236;2022-09-01T17:01:18;20.00;99.90
20827;DHT22;10574;52.508;13.236;2022-09-01T17:06:33;19.60;99.90